sensor_id;sensor_type;location;lat;lon;timestamp;pressure;altitude;pressure_sealevel;temperature;humidity
42847;BME280;75159;49.916;14.536;2024-02-16T00:01:15;97070.22;;;7.00;75.45
42847;BME280;75159;49.916;14.536;2024-02-16T00:11:36;97061.38;;;7.03;75.56
42847;BME280;75159;49.916;14.536;2024-02-16T00:21:58;97059.63;;;6.79;75.16
42847;BME280;75159;49.916;14.536;2024-02-16T00:32:19;97061.41;;;6.66;75.20
42847;BME280;75159;49.916;14.536;2024-02-16T00:42:40;97063.06;;;6.67;75.59
42847;BME280;75159;49.916;14.536;2024-02-16T00:53:01;97050.03;;;6.55;75.58
42847;BME280;75159;49.916;14.536;2024-02-16T01:03:23;97061.13;;;6.58;75.67
42847;BME280;75159;49.916;14.536;2024-02-16T01:13:46;97055.72;;;6.61;75.56
42847;BME280;75159;49.916;14.536;2024-02-16T01:24:07;97038.94;;;6.53;75.45
42847;BME280;75159;49.916;14.536;2024-02-16T01:34:29;97027.59;;;6.43;75.35
42847;BME280;75159;49.916;14.536;2024-02-16T01:44:53;97030.84;;;6.34;75.46
42847;BME280;75159;49.916;14.536;2024-02-16T01:55:15;97015.38;;;6.32;75.33
42847;BME280;75159;49.916;14.536;2024-02-16T02:05:46;97015.19;;;6.22;75.45
42847;BME280;75159;49.916;14.536;2024-02-16T02:16:09;97019.94;;;6.29;75.23
42847;BME280;75159;49.916;14.536;2024-02-16T02:26:30;97013.81;;;6.43;75.25
42847;BME280;75159;49.916;14.536;2024-02-16T02:36:53;97009.47;;;6.67;75.20
42847;BME280;75159;49.916;14.536;2024-02-16T02:47:14;96993.25;;;6.77;75.02
42847;BME280;75159;49.916;14.536;2024-02-16T02:57:34;96985.53;;;6.64;74.56
42847;BME280;75159;49.916;14.536;2024-02-16T03:07:55;96985.97;;;6.58;74.60
42847;BME280;75159;49.916;14.536;2024-02-16T03:18:16;96983.50;;;6.56;74.68
42847;BME280;75159;49.916;14.536;2024-02-16T03:28:38;96984.19;;;6.58;74.73
42847;BME280;75159;49.916;14.536;2024-02-16T03:38:58;96982.03;;;6.65;74.66
42847;BME280;75159;49.916;14.536;2024-02-16T03:49:19;96981.34;;;6.74;74.91
42847;BME280;75159;49.916;14.536;2024-02-16T03:59:41;96975.81;;;6.79;74.24
42847;BME280;75159;49.916;14.536;2024-02-16T04:10:02;96985.59;;;6.51;73.94
42847;BME280;75159;49.916;14.536;2024-02-16T04:20:23;96980.03;;;6.31;73.58
42847;BME280;75159;49.916;14.536;2024-02-16T04:30:44;96981.44;;;6.11;73.62
42847;BME280;75159;49.916;14.536;2024-02-16T04:41:05;96981.25;;;5.88;73.69
42847;BME280;75159;49.916;14.536;2024-02-16T04:51:26;96990.28;;;5.70;73.63
42847;BME280;75159;49.916;14.536;2024-02-16T05:01:47;96990.78;;;5.75;74.00
42847;BME280;75159;49.916;14.536;2024-02-16T05:12:08;96991.88;;;6.22;74.66
42847;BME280;75159;49.916;14.536;2024-02-16T05:22:30;96992.19;;;6.31;73.95
42847;BME280;75159;49.916;14.536;2024-02-16T05:32:50;96989.53;;;6.19;73.29
42847;BME280;75159;49.916;14.536;2024-02-16T05:43:14;96968.84;;;5.80;72.71
42847;BME280;75159;49.916;14.536;2024-02-16T05:53:35;96973.91;;;5.95;73.15
42847;BME280;75159;49.916;14.536;2024-02-16T06:03:57;96988.72;;;5.93;73.16
42847;BME280;75159;49.916;14.536;2024-02-16T06:14:17;97005.59;;;5.73;73.00
42847;BME280;75159;49.916;14.536;2024-02-16T06:24:40;97016.66;;;5.75;72.91
42847;BME280;75159;49.916;14.536;2024-02-16T06:35:01;97030.44;;;6.01;72.96
42847;BME280;75159;49.916;14.536;2024-02-16T06:45:22;97041.59;;;5.76;73.28
42847;BME280;75159;49.916;14.536;2024-02-16T06:55:43;97053.13;;;5.72;73.40
42847;BME280;75159;49.916;14.536;2024-02-16T07:06:04;97063.88;;;5.78;73.19
42847;BME280;75159;49.916;14.536;2024-02-16T07:16:28;97054.25;;;5.93;73.31
42847;BME280;75159;49.916;14.536;2024-02-16T07:26:49;97072.88;;;5.99;73.42
42847;BME280;75159;49.916;14.536;2024-02-16T07:37:10;97072.16;;;5.97;73.23
42847;BME280;75159;49.916;14.536;2024-02-16T07:47:31;97070.81;;;5.78;73.39
42847;BME280;75159;49.916;14.536;2024-02-16T07:57:52;97100.25;;;6.29;73.73
42847;BME280;75159;49.916;14.536;2024-02-16T08:08:13;97084.72;;;6.03;73.59
42847;BME280;75159;49.916;14.536;2024-02-16T08:18:34;97073.81;;;5.72;73.98
42847;BME280;75159;49.916;14.536;2024-02-16T08:28:56;97061.09;;;5.82;74.58
42847;BME280;75159;49.916;14.536;2024-02-16T08:39:17;97052.91;;;6.14;75.37
42847;BME280;75159;49.916;14.536;2024-02-16T08:49:43;97046.81;;;6.02;75.30
42847;BME280;75159;49.916;14.536;2024-02-16T09:00:04;97072.69;;;6.40;75.90
42847;BME280;75159;49.916;14.536;2024-02-16T09:10:25;97063.91;;;6.92;75.79
42847;BME280;75159;49.916;14.536;2024-02-16T09:20:46;97065.19;;;7.10;75.16
42847;BME280;75159;49.916;14.536;2024-02-16T09:31:07;97062.50;;;7.59;75.60
42847;BME280;75159;49.916;14.536;2024-02-16T09:41:28;97077.94;;;7.85;74.52
42847;BME280;75159;49.916;14.536;2024-02-16T09:51:50;97086.66;;;7.84;74.54
42847;BME280;75159;49.916;14.536;2024-02-16T10:02:11;97080.31;;;8.11;74.52
42847;BME280;75159;49.916;14.536;2024-02-16T10:12:32;97071.81;;;8.31;74.39
42847;BME280;75159;49.916;14.536;2024-02-16T10:23:10;97066.03;;;8.62;74.48
42847;BME280;75159;49.916;14.536;2024-02-16T10:33:31;97054.13;;;8.92;73.98
42847;BME280;75159;49.916;14.536;2024-02-16T10:43:53;97060.28;;;9.23;73.40
42847;BME280;75159;49.916;14.536;2024-02-16T10:54:17;97052.72;;;9.53;73.73
42847;BME280;75159;49.916;14.536;2024-02-16T11:04:40;97049.66;;;9.69;72.74
42847;BME280;75159;49.916;14.536;2024-02-16T11:15:01;97030.59;;;9.89;72.72
42847;BME280;75159;49.916;14.536;2024-02-16T11:25:31;97014.22;;;10.09;72.13
42847;BME280;75159;49.916;14.536;2024-02-16T11:35:54;97012.81;;;10.35;72.54
42847;BME280;75159;49.916;14.536;2024-02-16T11:46:15;97008.25;;;10.59;72.02
42847;BME280;75159;49.916;14.536;2024-02-16T11:56:38;97009.75;;;10.61;71.04
42847;BME280;75159;49.916;14.536;2024-02-16T12:07:03;96998.25;;;10.83;71.69
42847;BME280;75159;49.916;14.536;2024-02-16T12:28:25;96996.41;;;11.43;70.98
42847;BME280;75159;49.916;14.536;2024-02-16T12:38:46;97001.63;;;11.53;70.15
42847;BME280;75159;49.916;14.536;2024-02-16T12:49:07;96989.25;;;11.55;69.64
42847;BME280;75159;49.916;14.536;2024-02-16T12:59:28;96983.00;;;11.85;69.89
42847;BME280;75159;49.916;14.536;2024-02-16T13:09:49;96985.31;;;12.26;70.05
42847;BME280;75159;49.916;14.536;2024-02-16T13:20:14;96992.94;;;12.47;69.63
42847;BME280;75159;49.916;14.536;2024-02-16T13:30:34;96989.38;;;12.67;69.02
42847;BME280;75159;49.916;14.536;2024-02-16T13:40:55;96985.16;;;12.74;68.66
42847;BME280;75159;49.916;14.536;2024-02-16T13:51:17;97002.69;;;12.73;68.36
42847;BME280;75159;49.916;14.536;2024-02-16T14:01:37;97000.16;;;12.35;68.06
42847;BME280;75159;49.916;14.536;2024-02-16T14:11:58;97008.44;;;12.31;68.10
42847;BME280;75159;49.916;14.536;2024-02-16T14:22:21;97004.78;;;12.14;67.73
42847;BME280;75159;49.916;14.536;2024-02-16T14:32:43;97002.44;;;12.11;67.78
42847;BME280;75159;49.916;14.536;2024-02-16T14:43:04;97005.03;;;12.20;67.98
42847;BME280;75159;49.916;14.536;2024-02-16T14:53:25;97000.13;;;12.08;67.54
42847;BME280;75159;49.916;14.536;2024-02-16T15:03:46;96988.31;;;12.03;67.75
42847;BME280;75159;49.916;14.536;2024-02-16T15:14:08;96995.31;;;12.03;67.52
42847;BME280;75159;49.916;14.536;2024-02-16T15:24:29;97001.28;;;11.85;67.54
42847;BME280;75159;49.916;14.536;2024-02-16T15:34:50;97009.03;;;11.67;67.52
42847;BME280;75159;49.916;14.536;2024-02-16T15:45:14;97022.25;;;11.46;67.53
42847;BME280;75159;49.916;14.536;2024-02-16T15:55:35;97032.16;;;11.33;67.60
42847;BME280;75159;49.916;14.536;2024-02-16T16:05:56;97037.38;;;11.13;67.64
42847;BME280;75159;49.916;14.536;2024-02-16T16:16:17;97046.75;;;11.16;68.05
42847;BME280;75159;49.916;14.536;2024-02-16T16:26:38;97043.59;;;11.02;67.72
42847;BME280;75159;49.916;14.536;2024-02-16T16:36:59;97059.91;;;11.04;68.20
42847;BME280;75159;49.916;14.536;2024-02-16T16:47:21;97061.16;;;11.00;68.21
42847;BME280;75159;49.916;14.536;2024-02-16T16:57:41;97058.38;;;10.72;68.19
42847;BME280;75159;49.916;14.536;2024-02-16T17:08:02;97080.53;;;10.47;68.12
42847;BME280;75159;49.916;14.536;2024-02-16T17:18:23;97097.72;;;11.10;68.90
42847;BME280;75159;49.916;14.536;2024-02-16T17:28:45;97101.13;;;11.01;68.37
42847;BME280;75159;49.916;14.536;2024-02-16T17:39:06;97107.03;;;11.03;68.81
42847;BME280;75159;49.916;14.536;2024-02-16T17:49:29;97117.84;;;10.88;68.30
42847;BME280;75159;49.916;14.536;2024-02-16T17:59:50;97136.53;;;10.93;69.05
42847;BME280;75159;49.916;14.536;2024-02-16T18:10:12;97143.69;;;10.91;68.76
42847;BME280;75159;49.916;14.536;2024-02-16T18:20:34;97149.03;;;10.49;68.79
42847;BME280;75159;49.916;14.536;2024-02-16T18:30:55;97148.19;;;10.48;69.10
42847;BME280;75159;49.916;14.536;2024-02-16T18:41:15;97153.59;;;10.35;68.62
42847;BME280;75159;49.916;14.536;2024-02-16T18:51:37;97154.81;;;10.10;68.90
42847;BME280;75159;49.916;14.536;2024-02-16T19:01:58;97147.69;;;10.33;69.76
42847;BME280;75159;49.916;14.536;2024-02-16T19:12:22;97150.66;;;9.86;68.62
42847;BME280;75159;49.916;14.536;2024-02-16T19:22:43;97154.50;;;9.82;69.20
42847;BME280;75159;49.916;14.536;2024-02-16T19:33:04;97159.88;;;9.90;69.14
42847;BME280;75159;49.916;14.536;2024-02-16T19:43:25;97168.88;;;9.65;69.51
42847;BME280;75159;49.916;14.536;2024-02-16T19:53:49;97181.50;;;9.70;69.78
42847;BME280;75159;49.916;14.536;2024-02-16T20:04:10;97179.63;;;9.72;69.78
42847;BME280;75159;49.916;14.536;2024-02-16T20:14:32;97179.63;;;9.72;70.10
42847;BME280;75159;49.916;14.536;2024-02-16T20:24:53;97177.47;;;9.77;69.69
42847;BME280;75159;49.916;14.536;2024-02-16T20:35:14;97171.22;;;9.68;69.87
42847;BME280;75159;49.916;14.536;2024-02-16T20:45:37;97189.00;;;9.63;69.73
42847;BME280;75159;49.916;14.536;2024-02-16T20:55:57;97183.69;;;9.65;69.63
42847;BME280;75159;49.916;14.536;2024-02-16T21:06:18;97199.22;;;9.55;70.05
42847;BME280;75159;49.916;14.536;2024-02-16T21:16:41;97194.38;;;9.50;69.96
42847;BME280;75159;49.916;14.536;2024-02-16T21:27:02;97209.63;;;9.55;70.08
42847;BME280;75159;49.916;14.536;2024-02-16T21:37:23;97217.69;;;9.52;69.76
42847;BME280;75159;49.916;14.536;2024-02-16T21:47:44;97204.56;;;9.42;69.75
42847;BME280;75159;49.916;14.536;2024-02-16T21:58:05;97211.06;;;9.48;70.17
42847;BME280;75159;49.916;14.536;2024-02-16T22:08:26;97217.91;;;9.60;69.88
42847;BME280;75159;49.916;14.536;2024-02-16T22:18:47;97210.63;;;9.42;69.77
42847;BME280;75159;49.916;14.536;2024-02-16T22:29:08;97214.19;;;9.30;69.94
42847;BME280;75159;49.916;14.536;2024-02-16T22:39:29;97216.19;;;9.26;69.52
42847;BME280;75159;49.916;14.536;2024-02-16T22:49:51;97221.41;;;9.26;70.21
42847;BME280;75159;49.916;14.536;2024-02-16T23:00:12;97229.78;;;9.41;70.14
42847;BME280;75159;49.916;14.536;2024-02-16T23:10:45;97230.22;;;9.58;70.11
42847;BME280;75159;49.916;14.536;2024-02-16T23:21:07;97235.44;;;9.46;69.90
42847;BME280;75159;49.916;14.536;2024-02-16T23:31:28;97239.72;;;9.36;70.04
42847;BME280;75159;49.916;14.536;2024-02-16T23:41:49;97246.59;;;9.37;69.89
42847;BME280;75159;49.916;14.536;2024-02-16T23:52:10;97252.03;;;9.34;70.00
